createdAt,value
2017-03-22T00:00:38.073Z,0
2017-03-22T00:01:38.060Z,0
2017-03-22T00:02:38.106Z,0
2017-03-22T00:03:37.739Z,0
2017-03-22T00:04:38.032Z,0
2017-03-22T00:05:38.024Z,0
2017-03-22T00:06:37.741Z,0
2017-03-22T00:07:37.995Z,0
2017-03-22T00:08:37.990Z,0
2017-03-22T00:09:37.977Z,0
2017-03-22T00:10:37.961Z,0
2017-03-22T00:11:37.650Z,0
2017-03-22T00:12:37.640Z,0
2017-03-22T00:13:37.933Z,0
2017-03-22T00:14:37.925Z,0
2017-03-22T00:15:37.908Z,0
2017-03-22T00:16:37.900Z,0
2017-03-22T00:17:37.890Z,0
2017-03-22T00:18:37.877Z,0
2017-03-22T00:19:38.228Z,0
2017-03-22T00:20:37.855Z,0
2017-03-22T00:21:37.841Z,0
2017-03-22T00:22:37.834Z,0
2017-03-22T00:23:37.821Z,0
2017-03-22T00:24:37.815Z,0
2017-03-22T00:25:37.799Z,0
2017-03-22T00:26:37.785Z,0
2017-03-22T00:27:37.779Z,0
2017-03-22T00:28:37.766Z,0
2017-03-22T00:29:37.753Z,0
2017-03-22T00:30:37.442Z,0
2017-03-22T00:31:37.730Z,0
2017-03-22T00:32:37.721Z,0
2017-03-22T00:33:37.722Z,0
2017-03-22T00:34:37.696Z,0
2017-03-22T00:35:37.687Z,0
2017-03-22T00:36:37.367Z,0
2017-03-22T00:37:37.669Z,0
2017-03-22T00:38:37.661Z,0
2017-03-22T00:39:37.643Z,0
2017-03-22T00:40:37.629Z,0
2017-03-22T00:41:37.616Z,0
2017-03-22T00:42:37.610Z,0
2017-03-22T00:43:37.595Z,0
2017-03-22T00:44:37.586Z,0
2017-03-22T00:45:37.574Z,0
2017-03-22T00:46:37.558Z,0
2017-03-22T00:47:37.550Z,0
2017-03-22T00:48:37.541Z,0
2017-03-22T00:49:37.526Z,0
2017-03-22T00:50:37.512Z,0
2017-03-22T00:51:37.501Z,0
2017-03-22T00:52:37.184Z,0
2017-03-22T00:53:37.178Z,0
2017-03-22T00:54:37.467Z,0
2017-03-22T00:55:37.457Z,0
2017-03-22T00:56:37.440Z,0
2017-03-22T00:57:37.432Z,0
2017-03-22T00:58:37.429Z,0
2017-03-22T00:59:37.414Z,0
2017-03-22T01:00:37.397Z,0
2017-03-22T01:01:37.384Z,0
2017-03-22T01:02:37.376Z,0
2017-03-22T01:03:37.370Z,0
2017-03-22T01:04:37.353Z,0
2017-03-22T01:05:37.337Z,0
2017-03-22T01:06:37.025Z,0
2017-03-22T01:07:37.019Z,0
2017-03-22T01:08:37.316Z,0
2017-03-22T01:09:37.293Z,0
2017-03-22T01:10:37.285Z,0
2017-03-22T01:11:37.268Z,0
2017-03-22T01:12:37.257Z,0
2017-03-22T01:13:37.252Z,0
2017-03-22T01:14:37.234Z,0
2017-03-22T01:15:37.219Z,0
2017-03-22T01:16:37.209Z,0
2017-03-22T01:17:37.200Z,0
2017-03-22T01:18:37.192Z,0
2017-03-22T01:19:36.870Z,0
2017-03-22T01:20:37.157Z,0
2017-03-22T01:21:37.153Z,0
2017-03-22T01:22:37.141Z,0
2017-03-22T01:23:37.129Z,0
2017-03-22T01:24:37.114Z,0
2017-03-22T01:25:37.102Z,0
2017-03-22T01:26:37.089Z,0
2017-03-22T01:27:37.078Z,0
2017-03-22T01:28:37.069Z,0
2017-03-22T01:29:37.051Z,0
2017-03-22T01:30:37.039Z,0
2017-03-22T01:31:37.025Z,0
2017-03-22T01:32:37.022Z,0
2017-03-22T01:33:36.710Z,0
2017-03-22T01:34:36.992Z,0
2017-03-22T01:35:36.979Z,0
2017-03-22T01:36:36.968Z,0
2017-03-22T01:37:36.962Z,0
2017-03-22T01:38:36.967Z,0
2017-03-22T01:39:36.325Z,0
2017-03-22T01:40:36.924Z,0
2017-03-22T01:41:36.905Z,0
2017-03-22T01:42:36.904Z,0
2017-03-22T01:43:36.889Z,0
2017-03-22T01:44:36.878Z,0
2017-03-22T01:45:36.859Z,0
2017-03-22T01:46:36.848Z,0
2017-03-22T01:47:36.839Z,0
2017-03-22T01:48:36.839Z,0
2017-03-22T01:49:36.209Z,0
2017-03-22T01:50:36.495Z,0
2017-03-22T01:51:36.787Z,0
2017-03-22T01:52:36.785Z,0
2017-03-22T01:53:36.768Z,0
2017-03-22T01:54:36.751Z,0
2017-03-22T01:55:36.438Z,0
2017-03-22T01:56:36.426Z,0
2017-03-22T01:57:36.472Z,0
2017-03-22T01:58:36.403Z,0
2017-03-22T01:59:36.687Z,0
2017-03-22T02:00:36.683Z,0
2017-03-22T02:01:36.663Z,0
2017-03-22T02:02:36.657Z,0
2017-03-22T02:03:36.647Z,0
2017-03-22T02:04:36.626Z,0
2017-03-22T02:05:36.615Z,0
2017-03-22T02:06:36.602Z,0
2017-03-22T02:07:36.590Z,0
2017-03-22T02:08:36.591Z,0
2017-03-22T02:09:36.565Z,0
2017-03-22T02:10:36.550Z,0
2017-03-22T02:11:36.547Z,0
2017-03-22T02:12:36.828Z,0
2017-03-22T02:13:36.518Z,0
2017-03-22T02:14:36.198Z,0
2017-03-22T02:15:36.488Z,0
2017-03-22T02:16:36.481Z,0
2017-03-22T02:17:36.467Z,0
2017-03-22T02:18:36.456Z,0
2017-03-22T02:19:36.441Z,0
2017-03-22T02:20:36.430Z,0
2017-03-22T02:21:36.117Z,0
2017-03-22T02:22:36.401Z,0
2017-03-22T02:23:36.394Z,0
2017-03-22T02:24:36.380Z,0
2017-03-22T02:25:36.384Z,0
2017-03-22T02:26:36.354Z,0
2017-03-22T02:27:36.036Z,0
2017-03-22T02:28:36.338Z,0
2017-03-22T02:29:36.316Z,0
2017-03-22T02:30:36.302Z,0
2017-03-22T02:31:36.289Z,0
2017-03-22T02:32:36.008Z,0
2017-03-22T02:33:36.276Z,0
2017-03-22T02:34:36.282Z,0
2017-03-22T02:35:36.236Z,0
2017-03-22T02:36:35.919Z,0
2017-03-22T02:37:36.211Z,0
2017-03-22T02:38:36.205Z,0
2017-03-22T02:39:36.187Z,0
2017-03-22T02:40:36.175Z,0
2017-03-22T02:41:36.164Z,0
2017-03-22T02:44:36.126Z,0
2017-03-22T02:45:36.113Z,0
2017-03-22T02:54:36.000Z,0
2017-03-22T02:55:36.021Z,0
2017-03-22T02:56:36.379Z,0
2017-03-22T02:57:35.965Z,0
2017-03-22T02:58:35.952Z,0
2017-03-22T02:59:35.938Z,0
2017-03-22T03:00:35.922Z,0
2017-03-22T03:01:35.912Z,0
2017-03-22T03:02:35.601Z,0
2017-03-22T03:03:35.891Z,0
2017-03-22T03:04:35.880Z,0
2017-03-22T03:05:35.860Z,0
2017-03-22T03:06:35.859Z,0
2017-03-22T03:07:35.837Z,0
2017-03-22T03:08:35.839Z,0
2017-03-22T03:09:35.816Z,0
2017-03-22T03:10:35.798Z,0
2017-03-22T03:11:35.785Z,0
2017-03-22T03:12:35.776Z,0
2017-03-22T03:13:35.763Z,0
2017-03-22T03:14:35.754Z,0
2017-03-22T03:15:35.437Z,0
2017-03-22T03:16:35.721Z,0
2017-03-22T03:17:35.409Z,0
2017-03-22T03:18:35.401Z,0
2017-03-22T03:19:35.691Z,0
2017-03-22T03:20:35.672Z,0
2017-03-22T03:21:35.658Z,0
2017-03-22T03:22:35.349Z,0
2017-03-22T03:23:35.339Z,0
2017-03-22T03:24:35.624Z,0
2017-03-22T03:25:35.618Z,0
2017-03-22T03:26:35.601Z,0
2017-03-22T03:27:35.584Z,0
2017-03-22T03:28:35.273Z,0
2017-03-22T03:29:35.567Z,0
2017-03-22T03:30:35.547Z,0
2017-03-22T03:31:35.536Z,0
2017-03-22T03:32:35.219Z,0
2017-03-22T03:33:35.521Z,0
2017-03-22T03:34:35.498Z,0
2017-03-22T03:35:35.503Z,0
2017-03-22T03:36:35.169Z,0
2017-03-22T03:37:35.466Z,0
2017-03-22T03:38:35.149Z,0
2017-03-22T03:39:35.432Z,0
2017-03-22T03:40:35.423Z,0
2017-03-22T03:41:35.410Z,0
2017-03-22T03:42:35.407Z,0
2017-03-22T03:43:35.391Z,0
2017-03-22T03:44:35.111Z,0
2017-03-22T03:45:35.059Z,0
2017-03-22T03:46:35.347Z,0
2017-03-22T03:47:35.340Z,0
2017-03-22T03:48:35.027Z,0
2017-03-22T03:49:35.309Z,0
2017-03-22T03:50:35.297Z,0
2017-03-22T03:51:34.986Z,0
2017-03-22T03:52:35.278Z,0
2017-03-22T03:53:35.271Z,0
2017-03-22T03:54:35.253Z,0
2017-03-22T03:55:35.242Z,0
2017-03-22T03:56:34.916Z,0
2017-03-22T03:57:35.214Z,0
2017-03-22T03:58:35.206Z,0
2017-03-22T03:59:35.188Z,0
2017-03-22T04:00:34.874Z,0
2017-03-22T04:01:35.163Z,0
2017-03-22T04:02:35.158Z,0
2017-03-22T04:03:35.139Z,0
2017-03-22T04:04:35.132Z,0
2017-03-22T04:05:35.113Z,0
2017-03-22T04:06:35.101Z,0
2017-03-22T04:07:35.127Z,0
2017-03-22T04:08:35.094Z,0
2017-03-22T04:09:35.064Z,0
2017-03-22T04:10:35.057Z,0
2017-03-22T04:11:35.035Z,0
2017-03-22T04:12:34.726Z,0
2017-03-22T04:13:34.715Z,0
2017-03-22T04:14:35.259Z,0
2017-03-22T04:15:34.989Z,0
2017-03-22T04:16:35.002Z,0
2017-03-22T04:17:34.969Z,0
2017-03-22T04:18:34.666Z,0
2017-03-22T04:19:34.638Z,0
2017-03-22T04:20:34.625Z,0
2017-03-22T04:21:34.618Z,0
2017-03-22T04:22:34.908Z,0
2017-03-22T04:23:34.595Z,0
2017-03-22T04:24:34.890Z,0
2017-03-22T04:25:34.868Z,0
2017-03-22T04:26:34.858Z,0
2017-03-22T04:27:34.844Z,0
2017-03-22T04:28:34.842Z,0
2017-03-22T04:29:34.821Z,0
2017-03-22T04:30:34.808Z,0
2017-03-22T04:31:34.792Z,0
2017-03-22T04:32:34.481Z,0
2017-03-22T04:33:34.468Z,0
2017-03-22T04:34:34.763Z,4
2017-03-22T04:35:34.745Z,4
2017-03-22T04:36:34.782Z,4
2017-03-22T04:37:34.722Z,4
2017-03-22T04:38:34.409Z,4
2017-03-22T04:39:34.696Z,8
2017-03-22T04:40:34.719Z,4
2017-03-22T04:41:34.670Z,4
2017-03-22T04:42:34.669Z,12
2017-03-22T04:43:34.655Z,12
2017-03-22T04:44:34.635Z,16
2017-03-22T04:45:34.627Z,16
2017-03-22T04:46:34.610Z,20
2017-03-22T04:47:34.598Z,24
2017-03-22T04:48:34.591Z,28
2017-03-22T04:49:34.577Z,32
2017-03-22T04:50:34.560Z,36
2017-03-22T04:51:34.245Z,40
2017-03-22T04:52:34.543Z,44
2017-03-22T04:53:34.572Z,52
2017-03-22T04:54:34.541Z,60
2017-03-22T04:55:34.501Z,68
2017-03-22T04:56:34.497Z,76
2017-03-22T04:57:34.478Z,88
2017-03-22T04:58:34.465Z,96
2017-03-22T04:59:34.469Z,104
2017-03-22T05:00:34.439Z,120
2017-03-22T05:01:34.429Z,132
2017-03-22T05:02:34.419Z,144
2017-03-22T05:03:34.450Z,156
2017-03-22T05:04:34.091Z,176
2017-03-22T05:05:34.377Z,192
2017-03-22T05:06:34.068Z,208
2017-03-22T05:07:34.358Z,228
2017-03-22T05:08:34.348Z,252
2017-03-22T05:09:34.326Z,268
2017-03-22T05:10:34.013Z,292
2017-03-22T05:11:34.302Z,316
2017-03-22T05:12:34.319Z,340
2017-03-22T05:13:34.289Z,372
2017-03-22T05:14:34.272Z,404
2017-03-22T05:15:34.256Z,444
2017-03-22T05:16:34.242Z,496
2017-03-22T05:17:34.237Z,552
2017-03-22T05:18:34.226Z,628
2017-03-22T05:19:33.913Z,680
2017-03-22T05:20:33.892Z,712
2017-03-22T05:21:33.884Z,740
2017-03-22T05:22:34.179Z,780
2017-03-22T05:23:34.178Z,840
2017-03-22T05:24:34.153Z,944
2017-03-22T05:25:33.828Z,1100
2017-03-22T05:26:34.136Z,1240
2017-03-22T05:27:34.113Z,1332
2017-03-22T05:28:34.104Z,1384
2017-03-22T05:29:34.097Z,1420
2017-03-22T05:30:34.074Z,1444
2017-03-22T05:31:34.063Z,1484
2017-03-22T05:32:34.095Z,1552
2017-03-22T05:33:34.041Z,1616
2017-03-22T05:34:33.733Z,1684
2017-03-22T05:35:34.010Z,1828
2017-03-22T05:36:34.004Z,1980
2017-03-22T05:37:33.689Z,2028
2017-03-22T05:38:33.983Z,2060
2017-03-22T05:39:33.967Z,2232
2017-03-22T05:40:33.996Z,2524
2017-03-22T05:41:33.942Z,2832
2017-03-22T05:42:33.932Z,3088
2017-03-22T05:43:33.928Z,3344
2017-03-22T05:44:33.910Z,3572
2017-03-22T05:45:33.905Z,3652
2017-03-22T05:46:33.585Z,3632
2017-03-22T05:47:33.875Z,3676
2017-03-22T05:48:33.862Z,3652
2017-03-22T05:49:33.849Z,3632
2017-03-22T05:50:33.836Z,3580
2017-03-22T05:51:33.823Z,3504
2017-03-22T05:52:33.814Z,3456
2017-03-22T05:53:33.806Z,3452
2017-03-22T05:54:33.796Z,3464
2017-03-22T05:55:33.781Z,3576
2017-03-22T05:56:33.499Z,3844
2017-03-22T05:57:33.795Z,4116
2017-03-22T05:58:33.750Z,4112
2017-03-22T05:59:33.737Z,4052
2017-03-22T06:00:33.732Z,4256
2017-03-22T06:01:33.406Z,4624
2017-03-22T06:02:33.707Z,4780
2017-03-22T06:03:33.699Z,4776
2017-03-22T06:04:33.679Z,4756
2017-03-22T06:05:33.394Z,4704
2017-03-22T06:06:33.659Z,4764
2017-03-22T06:07:33.648Z,5032
2017-03-22T06:08:33.640Z,5148
2017-03-22T06:09:33.623Z,5236
2017-03-22T06:10:33.611Z,5544
2017-03-22T06:11:33.602Z,6308
2017-03-22T06:12:33.590Z,5844
2017-03-22T06:13:33.586Z,5520
2017-03-22T06:14:33.576Z,5524
2017-03-22T06:15:33.558Z,5524
2017-03-22T06:16:33.546Z,5588
2017-03-22T06:17:33.232Z,5672
2017-03-22T06:18:33.527Z,5808
2017-03-22T06:19:33.522Z,6068
2017-03-22T06:20:33.510Z,6308
2017-03-22T06:21:33.497Z,6356
2017-03-22T06:22:33.489Z,6364
2017-03-22T06:23:33.482Z,6552
2017-03-22T06:24:33.463Z,6884
2017-03-22T06:25:33.451Z,7028
2017-03-22T06:26:33.444Z,7304
2017-03-22T06:27:33.445Z,7540
2017-03-22T06:28:33.432Z,7796
2017-03-22T06:29:33.415Z,7716
2017-03-22T06:30:33.402Z,7852
2017-03-22T06:31:33.398Z,7976
2017-03-22T06:32:33.386Z,8340
2017-03-22T06:33:33.377Z,8640
2017-03-22T06:34:33.369Z,8916
2017-03-22T06:35:33.354Z,9276
2017-03-22T06:36:32.739Z,9548
2017-03-22T06:37:33.334Z,9968
2017-03-22T06:38:33.330Z,10012
2017-03-22T06:39:33.321Z,10132
2017-03-22T06:40:33.307Z,10328
2017-03-22T06:41:33.293Z,10536
2017-03-22T06:42:33.291Z,11020
2017-03-22T06:43:33.282Z,12592
2017-03-22T06:44:33.273Z,11844
2017-03-22T06:45:33.258Z,12100
2017-03-22T06:46:33.253Z,12516
2017-03-22T06:47:33.247Z,12508
2017-03-22T06:48:33.236Z,12692
2017-03-22T06:49:33.224Z,13148
2017-03-22T06:50:32.608Z,13028
2017-03-22T06:51:33.202Z,11192
2017-03-22T06:52:33.196Z,10684
2017-03-22T06:53:33.196Z,10720
2017-03-22T06:54:33.190Z,11144
2017-03-22T06:55:33.178Z,10996
2017-03-22T06:56:33.166Z,12104
2017-03-22T06:57:33.158Z,11800
2017-03-22T06:58:33.154Z,10948
2017-03-22T06:59:32.837Z,11912
2017-03-22T07:00:33.135Z,11576
2017-03-22T07:01:33.129Z,11144
2017-03-22T07:02:33.122Z,12056
2017-03-22T07:03:33.119Z,12040
2017-03-22T07:04:33.108Z,11972
2017-03-22T07:05:33.100Z,11836
2017-03-22T07:06:33.086Z,11132
2017-03-22T07:07:33.080Z,12460
2017-03-22T07:08:32.470Z,12580
2017-03-22T07:09:32.769Z,12652
2017-03-22T07:10:33.063Z,12300
2017-03-22T07:11:32.752Z,13284
2017-03-22T07:12:33.049Z,14864
2017-03-22T07:13:33.045Z,15712
2017-03-22T07:14:33.041Z,18816
2017-03-22T07:15:33.023Z,18592
2017-03-22T07:16:32.727Z,14780
2017-03-22T07:17:33.012Z,14432
2017-03-22T07:18:33.015Z,14000
2017-03-22T07:19:33.009Z,13212
2017-03-22T07:20:32.995Z,14976
2017-03-22T07:21:32.688Z,15936
2017-03-22T07:22:32.687Z,20000
2017-03-22T07:23:32.985Z,20448
2017-03-22T07:24:32.695Z,21536
2017-03-22T07:25:32.966Z,19104
2017-03-22T07:26:32.967Z,21952
2017-03-22T07:27:32.962Z,23040
2017-03-22T07:28:32.960Z,25888
2017-03-22T07:29:32.964Z,26464
2017-03-22T07:30:32.944Z,30528
2017-03-22T07:31:32.634Z,32224
2017-03-22T07:32:32.937Z,36448
2017-03-22T07:33:32.634Z,35520
2017-03-22T07:34:32.622Z,36768
2017-03-22T07:35:33.221Z,36512
2017-03-22T07:36:32.924Z,38272
2017-03-22T07:37:32.919Z,35232
2017-03-22T07:38:32.917Z,30240
2017-03-22T07:39:32.947Z,29312
2017-03-22T07:40:32.908Z,39648
2017-03-22T07:41:32.906Z,38816
2017-03-22T07:42:32.903Z,33312
2017-03-22T07:43:32.908Z,28352
2017-03-22T07:44:32.900Z,27744
2017-03-22T07:45:32.897Z,19072
2017-03-22T07:46:32.594Z,24384
2017-03-22T07:47:32.901Z,29856
2017-03-22T07:48:32.896Z,27808
2017-03-22T07:49:32.896Z,26656
2017-03-22T07:50:32.890Z,24544
2017-03-22T07:51:32.889Z,35936
2017-03-22T07:52:32.901Z,33984
2017-03-22T07:53:32.939Z,31104
2017-03-22T07:54:32.887Z,33088
2017-03-22T07:55:32.891Z,32128
2017-03-22T07:56:32.580Z,33632
2017-03-22T07:57:32.891Z,35104
2017-03-22T07:58:32.896Z,36832
2017-03-22T07:59:32.895Z,33472
2017-03-22T08:00:32.886Z,36032
2017-03-22T08:01:32.584Z,38208
2017-03-22T08:02:32.581Z,38656
2017-03-22T08:03:32.889Z,39616
2017-03-22T08:04:32.580Z,38944
2017-03-22T08:05:32.888Z,36736
2017-03-22T08:06:32.585Z,38496
2017-03-22T08:07:32.893Z,39488
2017-03-22T08:08:32.890Z,37792
2017-03-22T08:09:32.892Z,34624
2017-03-22T08:10:32.887Z,26688
2017-03-22T08:11:32.282Z,27264
2017-03-22T08:12:32.591Z,27936
2017-03-22T08:13:32.887Z,16672
2017-03-22T08:14:32.589Z,9580
2017-03-22T08:15:32.886Z,8804
2017-03-22T08:16:32.885Z,8360
2017-03-22T08:17:32.887Z,8380
2017-03-22T08:18:32.887Z,8424
2017-03-22T08:19:32.887Z,8208
2017-03-22T08:20:32.885Z,8024
2017-03-22T08:21:32.880Z,7856
2017-03-22T08:22:32.877Z,7860
2017-03-22T08:23:32.627Z,7704
2017-03-22T08:24:32.870Z,7672
2017-03-22T08:25:32.871Z,7380
2017-03-22T08:26:32.868Z,7792
2017-03-22T08:27:32.860Z,8060
2017-03-22T08:28:32.866Z,7972
2017-03-22T08:29:33.002Z,7664
2017-03-22T08:30:32.858Z,7660
2017-03-22T08:31:32.853Z,7796
2017-03-22T08:32:32.841Z,7968
2017-03-22T08:33:32.838Z,8464
2017-03-22T08:34:32.532Z,8412
2017-03-22T08:35:32.866Z,8360
2017-03-22T08:36:32.825Z,8356
2017-03-22T08:37:32.834Z,8516
2017-03-22T08:38:32.814Z,8780
2017-03-22T08:39:32.814Z,9076
2017-03-22T08:40:32.806Z,9244
2017-03-22T08:41:32.798Z,9132
2017-03-22T08:42:32.495Z,8852
2017-03-22T08:43:32.796Z,8576
2017-03-22T08:44:32.784Z,8484
2017-03-22T08:45:32.778Z,8516
2017-03-22T08:46:32.776Z,8724
2017-03-22T08:47:32.767Z,8588
2017-03-22T08:48:32.766Z,8476
2017-03-22T08:49:32.759Z,8596
2017-03-22T08:50:32.445Z,8956
2017-03-22T08:51:32.746Z,9196
2017-03-22T08:52:32.436Z,9764
2017-03-22T08:53:32.426Z,9840
2017-03-22T08:54:32.734Z,9668
2017-03-22T08:55:32.723Z,9784
2017-03-22T08:56:32.718Z,9064
2017-03-22T08:57:32.100Z,9508
2017-03-22T08:58:32.702Z,9660
2017-03-22T08:59:32.695Z,10016
2017-03-22T09:00:32.692Z,10548
2017-03-22T09:01:32.682Z,10232
2017-03-22T09:02:32.677Z,10300
2017-03-22T09:03:32.676Z,10848
2017-03-22T09:04:32.664Z,11404
2017-03-22T09:05:32.660Z,11676
2017-03-22T09:06:32.695Z,11792
2017-03-22T09:07:32.647Z,13072
2017-03-22T09:08:32.636Z,13792
2017-03-22T09:09:32.649Z,13216
2017-03-22T09:10:32.627Z,12036
2017-03-22T09:11:32.320Z,10656
2017-03-22T09:12:32.624Z,10148
2017-03-22T09:13:32.615Z,9984
2017-03-22T09:14:32.609Z,9808
2017-03-22T09:15:32.629Z,9884
2017-03-22T09:16:32.324Z,10080
2017-03-22T09:17:32.586Z,10360
2017-03-22T09:18:32.588Z,9964
2017-03-22T09:19:32.575Z,9424
2017-03-22T09:20:32.570Z,9028
2017-03-22T09:21:32.563Z,9380
2017-03-22T09:22:32.251Z,9804
2017-03-22T09:23:32.549Z,10324
2017-03-22T09:24:32.545Z,11036
2017-03-22T09:25:32.539Z,12600
2017-03-22T09:26:32.532Z,13112
2017-03-22T09:27:32.225Z,13168
2017-03-22T09:28:32.521Z,12704
2017-03-22T09:29:32.515Z,12116
2017-03-22T09:30:32.514Z,11068
2017-03-22T09:31:32.507Z,10804
2017-03-22T09:32:32.499Z,11120
2017-03-22T09:33:32.492Z,11220
2017-03-22T09:34:32.189Z,11232
2017-03-22T09:35:32.482Z,10948
2017-03-22T09:36:32.171Z,10412
2017-03-22T09:37:32.478Z,10488
2017-03-22T09:38:32.474Z,10868
2017-03-22T09:39:32.460Z,11092
2017-03-22T09:40:32.461Z,10568
2017-03-22T09:41:32.144Z,10168
2017-03-22T09:42:32.445Z,10072
2017-03-22T09:43:32.441Z,10124
2017-03-22T09:44:32.435Z,10168
2017-03-22T09:45:32.635Z,10268
2017-03-22T09:46:32.424Z,9652
2017-03-22T09:47:32.419Z,8964
2017-03-22T09:48:32.411Z,8468
2017-03-22T09:49:32.409Z,8368
2017-03-22T09:50:32.404Z,8352
2017-03-22T09:51:32.400Z,7764
2017-03-22T09:52:32.086Z,7356
2017-03-22T09:53:32.384Z,7400
2017-03-22T09:54:32.376Z,7472
2017-03-22T09:55:32.071Z,7308
2017-03-22T09:56:32.577Z,7564
2017-03-22T09:57:32.362Z,8208
2017-03-22T09:58:32.360Z,7612
2017-03-22T09:59:32.349Z,7416
2017-03-22T10:00:32.345Z,8260
2017-03-22T10:01:32.338Z,8936
2017-03-22T10:02:32.329Z,9104
2017-03-22T10:03:32.328Z,8680
2017-03-22T10:04:32.326Z,7920
2017-03-22T10:05:32.316Z,7624
2017-03-22T10:06:32.313Z,7192
2017-03-22T10:07:32.301Z,7656
2017-03-22T10:08:32.294Z,8116
2017-03-22T10:09:31.986Z,8608
2017-03-22T10:10:32.285Z,8696
2017-03-22T10:11:32.281Z,8856
2017-03-22T10:12:32.275Z,9172
2017-03-22T10:13:32.262Z,9824
2017-03-22T10:14:32.255Z,10136
2017-03-22T10:15:32.257Z,10716
2017-03-22T10:16:32.260Z,11544
2017-03-22T10:17:31.934Z,11956
2017-03-22T10:18:32.233Z,11508
2017-03-22T10:19:32.229Z,10472
2017-03-22T10:20:32.224Z,10624
2017-03-22T10:21:32.214Z,10928
2017-03-22T10:22:32.213Z,10604
2017-03-22T10:23:32.200Z,10584
2017-03-22T10:24:31.592Z,10576
2017-03-22T10:25:32.188Z,10684
2017-03-22T10:26:31.890Z,10488
2017-03-22T10:27:32.074Z,9852
2017-03-22T10:28:32.174Z,8868
2017-03-22T10:29:32.161Z,8032
2017-03-22T10:30:32.159Z,7548
2017-03-22T10:31:31.875Z,7492
2017-03-22T10:32:31.844Z,7404
2017-03-22T10:33:32.138Z,7372
2017-03-22T10:34:32.133Z,7328
2017-03-22T10:35:32.127Z,7052
2017-03-22T10:36:32.127Z,6972
2017-03-22T10:37:31.819Z,6752
2017-03-22T10:38:31.805Z,6620
2017-03-22T10:39:32.306Z,6396
2017-03-22T10:40:32.102Z,6128
2017-03-22T10:41:32.091Z,6088
2017-03-22T10:42:32.087Z,6236
2017-03-22T10:43:32.080Z,6388
2017-03-22T10:44:31.768Z,6596
2017-03-22T10:45:32.104Z,7132
2017-03-22T10:46:32.061Z,7692
2017-03-22T10:47:32.053Z,7616
2017-03-22T10:48:32.046Z,7324
2017-03-22T10:49:31.742Z,6948
2017-03-22T10:50:32.030Z,6616
2017-03-22T10:51:31.726Z,6684
2017-03-22T10:52:32.026Z,7144
2017-03-22T10:53:32.014Z,7628
2017-03-22T10:54:32.009Z,8048
2017-03-22T10:55:32.002Z,7944
2017-03-22T10:56:31.996Z,8500
2017-03-22T10:57:31.987Z,9172
2017-03-22T10:58:31.983Z,10156
2017-03-22T10:59:31.679Z,10904
2017-03-22T11:00:31.971Z,11504
2017-03-22T11:01:31.965Z,12048
2017-03-22T11:02:31.965Z,12040
2017-03-22T11:03:31.952Z,11716
2017-03-22T11:04:31.949Z,11280
2017-03-22T11:05:31.938Z,11660
2017-03-22T11:06:31.935Z,11268
2017-03-22T11:07:31.929Z,10380
2017-03-22T11:08:31.923Z,9204
2017-03-22T11:09:31.917Z,8140
2017-03-22T11:10:31.912Z,7312
2017-03-22T11:11:31.904Z,6696
2017-03-22T11:12:31.901Z,6360
2017-03-22T11:13:31.593Z,6240
2017-03-22T11:14:31.897Z,6156
2017-03-22T11:15:31.883Z,6076
2017-03-22T11:16:31.882Z,5928
2017-03-22T11:17:31.267Z,5720
2017-03-22T11:18:31.866Z,5496
2017-03-22T11:19:31.560Z,5364
2017-03-22T11:20:31.858Z,5380
2017-03-22T11:21:32.150Z,5700
2017-03-22T11:22:31.543Z,6164
2017-03-22T11:23:31.835Z,6516
2017-03-22T11:24:31.833Z,6408
2017-03-22T11:25:31.828Z,6152
2017-03-22T11:26:31.828Z,5948
2017-03-22T11:27:31.824Z,5824
2017-03-22T11:28:31.813Z,5688
2017-03-22T11:29:31.502Z,5656
2017-03-22T11:30:31.800Z,5864
2017-03-22T11:31:31.796Z,6280
2017-03-22T11:32:31.789Z,6668
2017-03-22T11:33:31.177Z,6952
2017-03-22T11:34:31.776Z,7128
2017-03-22T11:35:31.770Z,7252
2017-03-22T11:36:31.764Z,7312
2017-03-22T11:37:31.758Z,7068
2017-03-22T11:38:31.447Z,6700
2017-03-22T11:39:31.751Z,6368
2017-03-22T11:40:31.740Z,6152
2017-03-22T11:41:31.735Z,6004
2017-03-22T11:42:31.759Z,5928
2017-03-22T11:43:31.721Z,5936
2017-03-22T11:44:31.715Z,6020
2017-03-22T11:45:31.713Z,6120
2017-03-22T11:46:31.402Z,6164
2017-03-22T11:47:31.697Z,6168
2017-03-22T11:48:31.395Z,6108
2017-03-22T11:49:31.685Z,5968
2017-03-22T11:50:31.684Z,5828
2017-03-22T11:51:31.675Z,5788
2017-03-22T11:52:31.062Z,6040
2017-03-22T11:53:31.359Z,6292
2017-03-22T11:54:31.655Z,6368
2017-03-22T11:55:31.648Z,6292
2017-03-22T11:56:31.646Z,6256
2017-03-22T11:57:31.641Z,6164
2017-03-22T11:58:31.639Z,6140
2017-03-22T11:59:31.626Z,6160
2017-03-22T12:00:31.619Z,6164
2017-03-22T12:01:31.619Z,6172
2017-03-22T12:02:31.615Z,6168
2017-03-22T12:03:31.602Z,6184
2017-03-22T12:04:31.601Z,6188
2017-03-22T12:05:31.596Z,6240
2017-03-22T12:06:31.582Z,6296
2017-03-22T12:07:31.577Z,6348
2017-03-22T12:08:31.572Z,6468
2017-03-22T12:09:31.566Z,7112
2017-03-22T12:10:31.564Z,8120
2017-03-22T12:11:31.558Z,9396
2017-03-22T12:12:31.552Z,10328
2017-03-22T12:13:31.539Z,11112
2017-03-22T12:14:31.270Z,11712
2017-03-22T12:15:31.529Z,12104
2017-03-22T12:16:31.532Z,12184
2017-03-22T12:17:31.521Z,12680
2017-03-22T12:18:31.513Z,13200
2017-03-22T12:19:31.511Z,13396
2017-03-22T12:20:31.507Z,13640
2017-03-22T12:21:31.495Z,14172
2017-03-22T12:22:31.492Z,14820
2017-03-22T12:23:31.484Z,15236
2017-03-22T12:24:31.176Z,15624
2017-03-22T12:25:31.478Z,16048
2017-03-22T12:26:31.511Z,16072
2017-03-22T12:27:31.466Z,15948
2017-03-22T12:28:31.459Z,15832
2017-03-22T12:29:31.454Z,15460
2017-03-22T12:30:31.147Z,15084
2017-03-22T12:31:31.446Z,15036
2017-03-22T12:32:31.439Z,15036
2017-03-22T12:33:31.138Z,14900
2017-03-22T12:34:31.431Z,14788
2017-03-22T12:35:31.131Z,14756
2017-03-22T12:36:31.424Z,14972
2017-03-22T12:37:31.421Z,15304
2017-03-22T12:38:31.412Z,15664
2017-03-22T12:39:31.454Z,15760
2017-03-22T12:40:31.408Z,15832
2017-03-22T12:41:31.100Z,16152
2017-03-22T12:42:31.400Z,16640
2017-03-22T12:43:31.094Z,16768
2017-03-22T12:44:31.085Z,16608
2017-03-22T12:45:31.387Z,16384
2017-03-22T12:46:31.389Z,16036
2017-03-22T12:47:31.376Z,15980
2017-03-22T12:48:31.374Z,16192
2017-03-22T12:49:30.770Z,16352
2017-03-22T12:50:31.371Z,16576
2017-03-22T12:51:31.366Z,16928
2017-03-22T12:52:31.058Z,17088
2017-03-22T12:53:31.354Z,17056
2017-03-22T12:54:31.049Z,16768
2017-03-22T12:55:31.350Z,16576
2017-03-22T12:56:31.351Z,16448
2017-03-22T12:57:31.043Z,16384
2017-03-22T12:58:31.036Z,16192
2017-03-22T12:59:31.339Z,15844
2017-03-22T13:00:31.333Z,15668
2017-03-22T13:01:31.027Z,15564
2017-03-22T13:02:30.725Z,15604
2017-03-22T13:03:31.020Z,15844
2017-03-22T13:04:31.322Z,16128
2017-03-22T13:05:31.319Z,16160
2017-03-22T13:06:31.315Z,16128
2017-03-22T13:07:31.027Z,15828
2017-03-22T13:08:31.313Z,15720
2017-03-22T13:09:31.304Z,16096
2017-03-22T13:10:30.694Z,16192
2017-03-22T13:11:31.304Z,15900
2017-03-22T13:12:30.993Z,15644
2017-03-22T13:13:31.293Z,15432
2017-03-22T13:14:31.290Z,15272
2017-03-22T13:15:30.684Z,15164
2017-03-22T13:16:31.291Z,15032
2017-03-22T13:17:30.983Z,14888
2017-03-22T13:18:30.976Z,14884
2017-03-22T13:19:31.279Z,14932
2017-03-22T13:20:30.985Z,14672
2017-03-22T13:21:30.966Z,14368
2017-03-22T13:22:31.268Z,14288
2017-03-22T13:23:31.267Z,14328
2017-03-22T13:24:30.966Z,14320
2017-03-22T13:25:31.257Z,14020
2017-03-22T13:26:31.259Z,13908
2017-03-22T13:27:31.253Z,13852
2017-03-22T13:28:31.245Z,13900
2017-03-22T13:29:31.247Z,13960
2017-03-22T13:30:31.244Z,14008
2017-03-22T13:31:31.487Z,13996
2017-03-22T13:32:31.238Z,13804
2017-03-22T13:33:31.237Z,13664
2017-03-22T13:34:31.233Z,13484
2017-03-22T13:35:31.231Z,13488
2017-03-22T13:36:30.622Z,13544
2017-03-22T13:37:31.228Z,13556
2017-03-22T13:38:31.221Z,13508
2017-03-22T13:39:30.920Z,13460
2017-03-22T13:40:31.214Z,13408
2017-03-22T13:41:31.217Z,13388
2017-03-22T13:42:30.902Z,13420
2017-03-22T13:43:31.202Z,13412
2017-03-22T13:44:31.201Z,13372
2017-03-22T13:45:31.202Z,13352
2017-03-22T13:46:31.193Z,13324
2017-03-22T13:47:31.194Z,13280
2017-03-22T13:48:30.887Z,13160
2017-03-22T13:49:31.182Z,13104